createdAt,value
2022-08-09T00:00:23.389Z,101654.81
2022-08-09T00:02:52.582Z,101659.13
2022-08-09T00:06:19.039Z,101650.34
2022-08-09T00:08:31.440Z,101659.31
2022-08-09T00:11:00.874Z,101658.81
2022-08-09T00:13:34.461Z,101652.94
2022-08-09T00:16:06.634Z,101655.69
2022-08-09T00:18:36.158Z,101657.34
2022-08-09T00:21:08.506Z,101661.41
2022-08-09T00:23:57.031Z,101663.03
2022-08-09T00:26:30.102Z,101659.22
2022-08-09T00:29:02.106Z,101664.84
2022-08-09T00:31:59.630Z,101661.50
2022-08-09T00:34:19.869Z,101667.38
2022-08-09T00:36:49.164Z,101664.28
2022-08-09T00:40:09.447Z,101652.59
2022-08-09T00:44:13.637Z,101656.03
2022-08-09T00:44:56.569Z,101658.16
2022-08-09T00:47:25.536Z,101651.16
2022-08-09T00:49:56.541Z,101654.88
2022-08-09T00:52:30.640Z,101654.06
2022-08-09T00:55:02.234Z,101649.41
2022-08-09T00:57:34.300Z,101656.31
2022-08-09T01:00:22.128Z,101654.78
2022-08-09T01:02:55.266Z,101651.75
2022-08-09T01:05:53.150Z,101652.22
2022-08-09T01:08:30.556Z,101652.81
2022-08-09T01:11:16.875Z,101657.13
2022-08-09T01:13:59.041Z,101659.84
2022-08-09T01:16:33.318Z,101662.53
2022-08-09T01:19:17.154Z,101651.75
2022-08-09T01:22:22.526Z,101653.38
2022-08-09T01:25:02.004Z,101653.97
2022-08-09T01:27:34.886Z,101645.06
2022-08-09T01:30:08.144Z,101646.13
2022-08-09T01:32:38.918Z,101648.00
2022-08-09T01:35:28.471Z,101643.94
2022-08-09T01:38:10.550Z,101645.22
2022-08-09T01:40:52.901Z,101632.19
2022-08-09T01:43:51.137Z,101646.75
2022-08-09T01:46:24.910Z,101646.19
2022-08-09T01:48:56.987Z,101645.06
2022-08-09T01:51:27.107Z,101645.53
2022-08-09T01:54:02.397Z,101639.03
2022-08-09T01:56:34.791Z,101650.25
2022-08-09T01:59:10.472Z,101647.38
2022-08-09T02:01:57.859Z,101647.75
2022-08-09T02:04:28.319Z,101638.66
2022-08-09T02:07:18.383Z,101640.75
2022-08-09T02:10:06.242Z,101649.06
2022-08-09T02:12:36.806Z,101647.44
2022-08-09T02:15:15.348Z,101643.84
2022-08-09T02:18:01.469Z,101642.69
2022-08-09T02:20:39.613Z,101650.66
2022-08-09T02:23:13.695Z,101648.16
2022-08-09T02:25:55.716Z,101641.97
2022-08-09T02:28:29.298Z,101640.34
2022-08-09T02:31:05.994Z,101642.78
2022-08-09T02:34:06.505Z,101641.88
2022-08-09T02:36:32.193Z,101640.25
2022-08-09T02:39:06.115Z,101646.00
2022-08-09T02:41:39.516Z,101642.25
2022-08-09T02:44:25.578Z,101637.34
2022-08-09T02:47:04.486Z,101644.59
2022-08-09T02:49:38.866Z,101639.47
2022-08-09T02:52:13.485Z,101637.22
2022-08-09T02:54:54.453Z,101629.63
2022-08-09T02:57:27.171Z,101630.69
2022-08-09T03:00:21.098Z,101626.19
2022-08-09T03:03:00.487Z,101632.00
2022-08-09T03:05:34.608Z,101628.41
2022-08-09T03:08:05.453Z,101632.84
2022-08-09T03:10:36.176Z,101630.66
2022-08-09T03:13:08.634Z,101641.84
2022-08-09T03:16:04.562Z,101636.63
2022-08-09T03:18:31.346Z,101641.63
2022-08-09T03:21:01.864Z,101637.53
2022-08-09T03:23:30.552Z,101641.06
2022-08-09T03:26:04.720Z,101638.38
2022-08-09T03:28:35.471Z,101625.53
2022-08-09T03:31:09.870Z,101635.81
2022-08-09T03:33:53.618Z,101635.91
2022-08-09T03:36:27.310Z,101632.19
2022-08-09T03:38:57.080Z,101644.28
2022-08-09T03:41:29.632Z,101641.41
2022-08-09T03:44:07.649Z,101645.47
2022-08-09T03:46:46.894Z,101653.28
2022-08-09T03:49:21.346Z,101654.34
2022-08-09T03:52:00.347Z,101653.16
2022-08-09T03:54:34.940Z,101652.03
2022-08-09T03:57:20.619Z,101654.72
2022-08-09T03:59:53.371Z,101662.16
2022-08-09T04:02:26.597Z,101657.59
2022-08-09T04:04:59.255Z,101653.06
2022-08-09T04:07:47.309Z,101656.56
2022-08-09T04:10:20.640Z,101652.59
2022-08-09T04:12:53.269Z,101650.72
2022-08-09T04:15:39.051Z,101655.84
2022-08-09T04:18:16.590Z,101662.88
2022-08-09T04:20:48.358Z,101657.50
2022-08-09T04:23:17.376Z,101652.59
2022-08-09T04:25:49.852Z,101651.44
2022-08-09T04:28:31.433Z,101656.78
2022-08-09T04:31:07.718Z,101652.47
2022-08-09T04:33:52.653Z,101660.19
2022-08-09T04:36:28.579Z,101657.75
2022-08-09T04:38:59.362Z,101659.00
2022-08-09T04:41:32.374Z,101657.63
2022-08-09T04:44:05.693Z,101655.41
2022-08-09T04:46:57.089Z,101656.69
2022-08-09T04:49:52.080Z,101664.84
2022-08-09T04:52:18.710Z,101662.03
2022-08-09T04:54:53.556Z,101668.91
2022-08-09T04:57:24.136Z,101667.25
2022-08-09T04:59:55.146Z,101666.69
2022-08-09T05:02:24.497Z,101668.31
2022-08-09T05:04:56.151Z,101665.63
2022-08-09T05:07:29.230Z,101665.88
2022-08-09T05:10:02.157Z,101671.47
2022-08-09T05:12:33.135Z,101671.56
2022-08-09T05:15:11.805Z,101668.53
2022-08-09T05:18:42.765Z,101672.72
2022-08-09T05:20:40.374Z,101667.94
2022-08-09T05:23:53.908Z,101677.84
2022-08-09T05:25:58.734Z,101685.53
2022-08-09T05:28:27.535Z,101688.81
2022-08-09T05:30:55.505Z,101688.09
2022-08-09T05:33:26.563Z,101674.69
2022-08-09T05:36:01.502Z,101681.69
2022-08-09T05:38:31.197Z,101686.00
2022-08-09T05:40:59.469Z,101678.78
2022-08-09T05:43:28.972Z,101686.22
2022-08-09T05:46:00.320Z,101683.19
2022-08-09T05:48:33.315Z,101677.59
2022-08-09T05:51:42.405Z,101679.00
2022-08-09T05:53:57.628Z,101681.69
2022-08-09T05:56:27.329Z,101680.84
2022-08-09T05:58:58.990Z,101691.13
2022-08-09T06:01:34.092Z,101694.19
2022-08-09T06:04:12.197Z,101690.22
2022-08-09T06:06:45.203Z,101697.22
2022-08-09T06:09:40.417Z,101700.50
2022-08-09T06:12:06.218Z,101700.84
2022-08-09T06:14:36.466Z,101699.69
2022-08-09T06:17:09.435Z,101701.78
2022-08-09T06:19:39.705Z,101709.31
2022-08-09T06:22:15.179Z,101718.06
2022-08-09T06:24:48.994Z,101722.38
2022-08-09T06:27:18.712Z,101720.19
2022-08-09T06:30:04.512Z,101713.28
2022-08-09T06:33:00.680Z,101714.69
2022-08-09T06:35:56.282Z,101713.78
2022-08-09T06:38:15.901Z,101708.41
2022-08-09T06:40:46.081Z,101726.72
2022-08-09T06:43:14.880Z,101727.78
2022-08-09T06:46:10.713Z,101721.47
2022-08-09T06:48:31.445Z,101711.06
2022-08-09T06:51:00.487Z,101708.63
2022-08-09T06:53:38.209Z,101718.66
2022-08-09T06:56:09.181Z,101722.50
2022-08-09T07:00:47.692Z,101722.75
2022-08-09T07:01:27.641Z,101726.34
2022-08-09T07:04:04.476Z,101727.50
2022-08-09T07:06:33.142Z,101732.84
2022-08-09T07:09:02.688Z,101731.19
2022-08-09T07:11:34.250Z,101732.34
2022-08-09T07:14:26.491Z,101739.09
2022-08-09T07:16:58.293Z,101721.03
2022-08-09T07:19:27.370Z,101733.94
2022-08-09T07:21:59.846Z,101734.78
2022-08-09T07:24:32.425Z,101735.81
2022-08-09T07:27:27.311Z,101724.94
2022-08-09T07:30:00.339Z,101731.69
2022-08-09T07:32:33.035Z,101734.34
2022-08-09T07:35:08.256Z,101737.78
2022-08-09T07:37:43.650Z,101740.28
2022-08-09T07:40:17.261Z,101741.19
2022-08-09T07:42:56.022Z,101737.44
2022-08-09T07:45:40.393Z,101737.63
2022-08-09T07:48:22.635Z,101738.69
2022-08-09T07:51:09.601Z,101744.78
2022-08-09T07:54:04.936Z,101744.25
2022-08-09T07:56:37.086Z,101749.94
2022-08-09T07:59:15.875Z,101741.22
2022-08-09T08:01:55.978Z,101742.94
2022-08-09T08:04:31.203Z,101735.78
2022-08-09T08:07:09.368Z,101742.63
2022-08-09T08:10:05.857Z,101738.25
2022-08-09T08:12:42.352Z,101731.69
2022-08-09T08:15:16.676Z,101733.25
2022-08-09T08:17:54.751Z,101735.53
2022-08-09T08:20:28.728Z,101738.06
2022-08-09T08:23:01.597Z,101741.78
2022-08-09T08:25:44.729Z,101735.03
2022-08-09T08:28:18.141Z,101739.16
2022-08-09T08:30:56.502Z,101745.69
2022-08-09T08:33:25.184Z,101750.94
2022-08-09T08:35:59.846Z,101751.84
2022-08-09T08:38:30.707Z,101755.97
2022-08-09T08:41:01.807Z,101757.59
2022-08-09T08:43:36.278Z,101751.06
2022-08-09T08:46:31.934Z,101756.56
2022-08-09T08:49:02.751Z,101759.66
2022-08-09T08:51:38.810Z,101755.31
2022-08-09T08:54:29.973Z,101757.81
2022-08-09T08:57:00.172Z,101755.38
2022-08-09T08:59:46.685Z,101752.75
2022-08-09T09:02:31.037Z,101763.31
2022-08-09T09:05:03.109Z,101760.56
2022-08-09T09:07:36.747Z,101756.88
2022-08-09T09:10:10.834Z,101747.13
2022-08-09T09:12:41.431Z,101749.06
2022-08-09T09:15:12.098Z,101763.19
2022-08-09T09:17:51.670Z,101766.31
2022-08-09T09:20:22.707Z,101750.47
2022-08-09T09:22:56.448Z,101752.63
2022-08-09T09:26:03.209Z,101758.84
2022-08-09T09:29:01.669Z,101758.56
2022-08-09T09:32:04.345Z,101758.00
2022-08-09T09:34:18.308Z,101750.78
2022-08-09T09:36:54.222Z,101760.25
2022-08-09T09:39:42.737Z,101754.00
2022-08-09T09:42:25.808Z,101758.34
2022-08-09T09:45:00.456Z,101746.44
2022-08-09T09:47:32.501Z,101748.88
2022-08-09T09:50:14.832Z,101755.66
2022-08-09T09:52:54.765Z,101752.16
2022-08-09T09:55:31.896Z,101743.78
2022-08-09T09:58:12.500Z,101754.31
2022-08-09T10:00:52.530Z,101741.31
2022-08-09T10:03:58.084Z,101753.53
2022-08-09T10:06:42.580Z,101753.25
2022-08-09T10:09:22.171Z,101740.50
2022-08-09T10:12:12.354Z,101739.38
2022-08-09T10:14:48.990Z,101741.00
2022-08-09T10:17:39.671Z,101749.16
2022-08-09T10:20:27.151Z,101743.19
2022-08-09T10:23:17.453Z,101739.41
2022-08-09T10:26:07.185Z,101730.19
2022-08-09T10:28:39.872Z,101729.34
2022-08-09T10:34:10.506Z,101743.44
2022-08-09T10:36:50.856Z,101728.25
2022-08-09T10:39:28.462Z,101739.09
2022-08-09T10:41:57.647Z,101732.81
2022-08-09T10:44:30.586Z,101736.00
2022-08-09T10:48:19.524Z,101728.44
2022-08-09T10:50:31.429Z,101732.13
2022-08-09T10:53:13.900Z,101731.50
2022-08-09T10:55:58.269Z,101728.28
2022-08-09T10:58:33.927Z,101730.47
2022-08-09T11:03:06.627Z,101740.75
2022-08-09T11:04:19.434Z,101730.63
2022-08-09T11:07:57.868Z,101716.72
2022-08-09T11:10:39.359Z,101710.34
2022-08-09T11:13:50.296Z,101707.06
2022-08-09T11:16:39.031Z,101706.69
2022-08-09T11:19:10.374Z,101702.53
2022-08-09T11:22:10.491Z,101699.75
2022-08-09T11:25:09.001Z,101696.34
2022-08-09T11:28:03.535Z,101698.94
2022-08-09T11:30:38.389Z,101695.53
2022-08-09T11:33:13.581Z,101698.81
2022-08-09T11:35:50.280Z,101700.81
2022-08-09T11:38:32.558Z,101703.94
2022-08-09T11:41:38.526Z,101689.22
2022-08-09T11:44:10.481Z,101684.50
2022-08-09T11:47:01.111Z,101695.78
2022-08-09T11:50:53.983Z,101697.03
2022-08-09T11:53:28.042Z,101691.00
2022-08-09T11:56:42.391Z,101687.66
2022-08-09T11:59:30.317Z,101683.91
2022-08-09T12:02:18.187Z,101678.56
2022-08-09T12:04:54.598Z,101677.09
2022-08-09T12:07:29.198Z,101684.22
2022-08-09T12:10:14.443Z,101667.03
2022-08-09T12:13:03.630Z,101666.13
2022-08-09T12:15:52.563Z,101669.22
2022-08-09T12:18:29.546Z,101665.69
2022-08-09T12:21:00.400Z,101660.00
2022-08-09T12:23:57.939Z,101655.31
2022-08-09T12:26:25.636Z,101660.97
2022-08-09T12:29:10.223Z,101649.28
2022-08-09T12:31:58.943Z,101652.47
2022-08-09T12:34:37.728Z,101648.75
2022-08-09T12:37:21.466Z,101650.19
2022-08-09T12:40:08.003Z,101637.09
2022-08-09T12:42:37.506Z,101643.22
2022-08-09T12:45:33.485Z,101642.00
2022-08-09T12:47:58.393Z,101645.66
2022-08-09T12:50:28.896Z,101641.69
2022-08-09T12:53:08.089Z,101639.72
2022-08-09T12:56:14.738Z,101637.69
2022-08-09T12:58:28.692Z,101632.59
2022-08-09T13:00:58.233Z,101619.50
2022-08-09T13:03:57.366Z,101626.44
2022-08-09T13:06:34.274Z,101628.41
2022-08-09T13:09:11.264Z,101614.59
2022-08-09T13:11:44.377Z,101618.03
2022-08-09T13:14:42.486Z,101614.28
2022-08-09T13:17:08.696Z,101611.13
2022-08-09T13:20:09.336Z,101622.97
2022-08-09T13:22:35.429Z,101613.69
2022-08-09T13:25:14.655Z,101610.41
2022-08-09T13:27:54.536Z,101610.38
2022-08-09T13:30:51.049Z,101608.41
2022-08-09T13:33:23.169Z,101601.50
2022-08-09T13:36:41.769Z,101599.75
2022-08-09T13:38:56.734Z,101602.28
2022-08-09T13:41:57.273Z,101597.31
2022-08-09T13:44:17.605Z,101596.19
2022-08-09T13:47:26.758Z,101593.06
2022-08-09T13:49:43.650Z,101582.97
2022-08-09T13:52:25.815Z,101591.78
2022-08-09T13:55:00.197Z,101585.69
2022-08-09T13:57:39.567Z,101581.25
2022-08-09T14:00:13.026Z,101580.41
2022-08-09T14:03:03.761Z,101591.63
2022-08-09T14:05:59.480Z,101576.91
2022-08-09T14:08:27.065Z,101592.00
2022-08-09T14:11:00.258Z,101581.41
2022-08-09T14:14:16.305Z,101585.03
2022-08-09T14:16:28.465Z,101572.84
2022-08-09T14:18:59.561Z,101574.09
2022-08-09T14:21:29.497Z,101568.56
2022-08-09T14:24:10.372Z,101567.69
2022-08-09T14:26:51.355Z,101572.16
2022-08-09T14:30:04.393Z,101564.47
2022-08-09T14:32:13.363Z,101560.84
2022-08-09T14:34:55.576Z,101572.19
2022-08-09T14:37:28.589Z,101574.56
2022-08-09T14:40:11.152Z,101556.03
2022-08-09T14:42:42.827Z,101558.41
2022-08-09T14:47:00.903Z,101556.50
2022-08-09T14:48:03.677Z,101557.72
2022-08-09T14:50:34.668Z,101548.84
2022-08-09T14:53:11.696Z,101551.38
2022-08-09T14:55:49.894Z,101552.78
2022-08-09T14:58:20.824Z,101553.69
2022-08-09T15:00:52.102Z,101554.38
2022-08-09T15:03:21.284Z,101551.78
2022-08-09T15:05:55.586Z,101547.84
2022-08-09T15:08:26.597Z,101546.03
2022-08-09T15:11:00.407Z,101543.91
2022-08-09T15:13:48.663Z,101544.59
2022-08-09T15:16:22.518Z,101536.84
2022-08-09T15:18:52.376Z,101535.63
2022-08-09T15:21:54.798Z,101531.19
2022-08-09T15:24:15.272Z,101522.13
2022-08-09T15:26:47.375Z,101524.53
2022-08-09T15:30:59.159Z,101533.34
2022-08-09T15:32:28.415Z,101524.13
2022-08-09T15:35:00.459Z,101526.34
2022-08-09T15:37:56.956Z,101521.34
2022-08-09T15:40:32.047Z,101532.75
2022-08-09T15:43:01.897Z,101523.97
2022-08-09T15:46:07.338Z,101530.03
2022-08-09T15:48:29.308Z,101528.22
2022-08-09T15:51:01.184Z,101527.97
2022-08-09T15:54:05.478Z,101525.81
2022-08-09T15:56:23.338Z,101524.63
2022-08-09T15:59:00.483Z,101519.50
2022-08-09T16:01:35.489Z,101518.78
2022-08-09T16:04:13.486Z,101521.50
2022-08-09T16:06:50.405Z,101518.88
2022-08-09T16:09:18.961Z,101520.41
2022-08-09T16:12:01.685Z,101512.19
2022-08-09T16:14:31.651Z,101510.09
2022-08-09T16:17:02.533Z,101514.34
2022-08-09T16:19:36.894Z,101510.31
2022-08-09T16:22:18.372Z,101516.25
2022-08-09T16:24:57.018Z,101511.81
2022-08-09T16:27:29.725Z,101522.72
2022-08-09T16:30:01.174Z,101516.47
2022-08-09T16:32:46.168Z,101511.50
2022-08-09T16:35:55.906Z,101510.75
2022-08-09T16:38:11.208Z,101510.19
2022-08-09T16:40:41.306Z,101512.00
2022-08-09T16:43:09.883Z,101511.88
2022-08-09T16:45:43.907Z,101517.59
2022-08-09T16:48:40.666Z,101510.09
2022-08-09T16:51:08.010Z,101502.31
2022-08-09T16:54:02.504Z,101499.28
2022-08-09T16:56:31.041Z,101499.78
2022-08-09T16:58:59.575Z,101502.72
2022-08-09T17:01:33.838Z,101497.28
2022-08-09T17:04:05.452Z,101495.63
2022-08-09T17:08:41.606Z,101492.19
2022-08-09T17:09:46.255Z,101500.28
2022-08-09T17:12:11.455Z,101500.28
2022-08-09T17:14:39.895Z,101499.78
2022-08-09T17:17:27.207Z,101501.88
2022-08-09T17:20:32.362Z,101499.44
2022-08-09T17:22:51.805Z,101502.25
2022-08-09T17:25:23.644Z,101508.59
2022-08-09T17:27:53.809Z,101500.38
2022-08-09T17:30:26.092Z,101507.91
2022-08-09T17:33:00.757Z,101503.59
2022-08-09T17:35:41.286Z,101517.38
2022-08-09T17:38:30.512Z,101512.88
2022-08-09T17:41:00.081Z,101524.34
2022-08-09T17:43:34.292Z,101526.25
2022-08-09T17:46:06.798Z,101528.84
2022-08-09T17:48:38.912Z,101519.66
2022-08-09T17:51:19.312Z,101516.25
2022-08-09T17:53:53.351Z,101525.09
2022-08-09T17:56:27.386Z,101533.50
2022-08-09T17:59:09.348Z,101524.44
2022-08-09T18:02:03.314Z,101528.41
2022-08-09T18:04:28.075Z,101531.50
2022-08-09T18:07:04.771Z,101530.25
2022-08-09T18:09:41.874Z,101535.97
2022-08-09T18:12:17.217Z,101531.50
2022-08-09T18:14:54.199Z,101531.94
2022-08-09T18:17:26.905Z,101531.88
2022-08-09T18:20:59.397Z,101528.13
2022-08-09T18:22:56.638Z,101528.63
2022-08-09T18:25:51.261Z,101527.53
2022-08-09T18:30:33.863Z,101529.75
2022-08-09T18:31:04.243Z,101533.03
2022-08-09T18:33:34.284Z,101534.72
2022-08-09T18:36:02.414Z,101533.41
2022-08-09T18:38:31.830Z,101538.00
2022-08-09T18:41:00.967Z,101535.66
2022-08-09T18:43:35.206Z,101542.56
2022-08-09T18:46:49.398Z,101545.78
2022-08-09T18:48:51.973Z,101543.44
2022-08-09T18:51:37.985Z,101551.34
2022-08-09T18:54:20.087Z,101548.50
2022-08-09T18:57:06.310Z,101550.09
2022-08-09T18:59:49.133Z,101556.72
2022-08-09T19:02:20.403Z,101556.41
2022-08-09T19:05:03.283Z,101555.19
2022-08-09T19:07:33.627Z,101554.31
2022-08-09T19:10:16.699Z,101561.44
2022-08-09T19:12:50.922Z,101559.31
2022-08-09T19:15:33.756Z,101563.19
2022-08-09T19:18:02.443Z,101558.97
2022-08-09T19:20:39.153Z,101570.97
2022-08-09T19:23:08.680Z,101570.47
2022-08-09T19:26:01.869Z,101565.28
2022-08-09T19:28:34.246Z,101577.09
2022-08-09T19:31:07.574Z,101578.75
2022-08-09T19:33:36.061Z,101565.78
2022-08-09T19:36:04.491Z,101575.00
2022-08-09T19:38:35.272Z,101585.94
2022-08-09T19:41:09.659Z,101584.34
2022-08-09T19:44:00.859Z,101578.66
2022-08-09T19:46:35.801Z,101589.81
2022-08-09T19:50:06.931Z,101589.56
2022-08-09T19:52:04.384Z,101580.31
2022-08-09T19:54:32.715Z,101587.13
2022-08-09T19:57:02.307Z,101581.75
2022-08-09T19:59:57.486Z,101580.97
2022-08-09T20:04:26.144Z,101593.50
2022-08-09T20:05:14.867Z,101592.78
2022-08-09T20:07:58.741Z,101586.00
2022-08-09T20:10:34.366Z,101597.38
2022-08-09T20:13:08.367Z,101596.88
2022-08-09T20:16:36.655Z,101596.38
2022-08-09T20:18:27.554Z,101583.63
2022-08-09T20:20:57.389Z,101587.44
2022-08-09T20:23:39.347Z,101583.31
2022-08-09T20:26:12.929Z,101581.41
2022-08-09T20:28:48.469Z,101582.78
2022-08-09T20:31:18.602Z,101584.69
2022-08-09T20:33:52.322Z,101587.41
2022-08-09T20:36:27.310Z,101584.41
2022-08-09T20:39:29.009Z,101576.56
2022-08-09T20:41:44.508Z,101582.00
2022-08-09T20:44:26.974Z,101572.22
2022-08-09T20:46:57.930Z,101577.13
2022-08-09T20:49:27.492Z,101577.13
2022-08-09T20:51:56.666Z,101574.97
2022-08-09T20:54:25.922Z,101576.88
2022-08-09T20:56:57.124Z,101572.81
2022-08-09T21:00:20.670Z,101571.22
2022-08-09T21:02:18.411Z,101574.47
2022-08-09T21:05:53.118Z,101569.59
2022-08-09T21:07:40.165Z,101582.06
2022-08-09T21:10:11.571Z,101579.38
2022-08-09T21:12:39.860Z,101577.53
2022-08-09T21:15:12.346Z,101579.41
2022-08-09T21:18:11.713Z,101582.16
2022-08-09T21:20:31.028Z,101579.47
2022-08-09T21:22:59.659Z,101580.59
2022-08-09T21:26:01.850Z,101578.69
2022-08-09T21:28:34.360Z,101575.19
2022-08-09T21:31:16.529Z,101562.25
2022-08-09T21:33:50.410Z,101567.69
2022-08-09T21:36:23.097Z,101568.50
2022-08-09T21:38:57.366Z,101579.56
2022-08-09T21:42:04.514Z,101573.91
2022-08-09T21:44:32.982Z,101580.69
2022-08-09T21:47:07.722Z,101582.31
2022-08-09T21:49:40.054Z,101574.19
2022-08-09T21:52:14.956Z,101583.94
2022-08-09T21:54:50.915Z,101586.94
2022-08-09T21:57:39.340Z,101583.97
2022-08-09T22:00:25.677Z,101592.63
2022-08-09T22:02:58.876Z,101583.16
2022-08-09T22:05:35.692Z,101590.19
2022-08-09T22:08:11.884Z,101588.84
2022-08-09T22:11:00.294Z,101594.00
2022-08-09T22:13:34.914Z,101592.09
2022-08-09T22:16:07.562Z,101606.19
2022-08-09T22:18:38.597Z,101599.41
2022-08-09T22:21:24.122Z,101604.56
2022-08-09T22:24:00.071Z,101605.59
2022-08-09T22:26:35.164Z,101606.97
2022-08-09T22:29:09.177Z,101605.88
2022-08-09T22:31:44.133Z,101604.25
2022-08-09T22:34:20.487Z,101604.25
2022-08-09T22:36:53.612Z,101607.72
2022-08-09T22:39:57.482Z,101605.00
2022-08-09T22:42:22.242Z,101601.19
2022-08-09T22:45:00.251Z,101607.38
2022-08-09T22:48:11.473Z,101604.38
2022-08-09T22:50:31.060Z,101608.09
2022-08-09T22:52:59.399Z,101602.69
2022-08-09T22:55:39.489Z,101612.97
2022-08-09T22:58:30.585Z,101602.66
2022-08-09T23:01:01.023Z,101596.16
2022-08-09T23:04:02.356Z,101602.94
2022-08-09T23:06:34.697Z,101594.84
2022-08-09T23:09:04.952Z,101594.56
2022-08-09T23:11:33.366Z,101596.72
2022-08-09T23:14:02.983Z,101593.22
2022-08-09T23:16:31.330Z,101589.94
2022-08-09T23:18:59.763Z,101588.00
2022-08-09T23:21:33.515Z,101585.81
2022-08-09T23:24:07.245Z,101581.25
2022-08-09T23:26:36.132Z,101582.53
2022-08-09T23:29:05.174Z,101581.72
2022-08-09T23:31:33.861Z,101576.59
2022-08-09T23:34:02.569Z,101573.31
2022-08-09T23:36:34.100Z,101577.09
2022-08-09T23:39:02.309Z,101572.78
2022-08-09T23:41:30.504Z,101577.66
2022-08-09T23:44:00.163Z,101573.56
2022-08-09T23:46:29.190Z,101578.16
2022-08-09T23:48:57.631Z,101571.94
2022-08-09T23:51:27.513Z,101571.34
2022-08-09T23:54:02.445Z,101573.50
2022-08-09T23:56:52.541Z,101569.97
2022-08-09T23:59:20.976Z,101563.13
